»·PEaware :: N679HB KTOA-KVNY

N679HB :: KTOA-KVNY

FLIGHT INFORMATION

Flight Status: Arrived
Operator: Privately registered:
United States
More flights under this callsign
Pilot: Henrik G. (22897)
Aircraft: PIPER PA-28R-201 ARROW
(P28R)
More flights by this aircraft type
Origin: KTOA Zamperini
United States
Destination: KVNY Van Nuys
United States
More flights between these airports :: More routes between these airports
Route: +LAX170 LIMBO V64 SMO125 SMO SMO317 CANOG
File this flight plan on PilotEdge
Remarks: SCTP2
Altitude:
(Current/Filed)
4,000ft
Speed:
(Current/Filed)
130kts
Departed: 04-Dec-19 01:26 PM
Arrived: 04-Dec-19 02:04 PM
Distance/Time
Traveled:
26nm/0:38
Distance/Time
To Go:
Arrived

Flight Plot

Page will automatically refresh every two minutes.


Map Options




Map Legend


Flown Route
Filed Route
Departure Airport
Arrival Airport
Navaid (VOR, NDB)
Fix

Horizontal Profiles

Position Reports

Time Latitude Longitude Heading Altitude Ground
Speed
04-Dec-19 13:09 33.803347 -118.344052 39 101ft 0kts
04-Dec-19 13:10 33.803347 -118.344052 39 101ft 0kts
04-Dec-19 13:11 33.803347 -118.344052 39 101ft 0kts
04-Dec-19 13:12 33.803347 -118.344052 39 101ft 0kts
04-Dec-19 13:13 33.803347 -118.344052 39 101ft 0kts
04-Dec-19 13:15 33.803347 -118.344052 39 101ft 0kts
04-Dec-19 13:16 33.803347 -118.344052 39 101ft 0kts
04-Dec-19 13:17 33.803347 -118.344052 39 101ft 0kts
04-Dec-19 13:18 33.803347 -118.344052 39 101ft 0kts
04-Dec-19 13:19 33.803347 -118.344052 39 101ft 0kts
04-Dec-19 13:20 33.803347 -118.344052 39 101ft 0kts
04-Dec-19 13:21 33.802312 -118.340962 129 101ft 22kts
04-Dec-19 13:22 33.798252 -118.334088 39 101ft 15kts
04-Dec-19 13:23 33.799168 -118.333228 37 101ft 0kts
04-Dec-19 13:24 33.799168 -118.333228 37 101ft 0kts
04-Dec-19 13:25 33.800073 -118.333624 309 101ft 18kts
04-Dec-19 13:26 33.812334 -118.353109 307 569ft 91kts
04-Dec-19 13:27 33.828323 -118.382163 304 1142ft 116kts
04-Dec-19 13:28 33.846669 -118.413186 306 1764ft 111kts
04-Dec-19 13:29 33.857528 -118.446796 238 2190ft 123kts
04-Dec-19 13:30 33.825310 -118.445305 162 2652ft 123kts
04-Dec-19 13:31 33.797574 -118.428499 85 3027ft 123kts
04-Dec-19 13:31 33.817741 -118.412234 10 3367ft 113kts
04-Dec-19 13:33 33.852552 -118.401898 10 3920ft 109kts
04-Dec-19 13:34 33.883185 -118.392731 10 4038ft 121kts
04-Dec-19 13:34 33.910287 -118.385054 10 4009ft 122kts
04-Dec-19 13:36 33.948238 -118.386882 337 3951ft 119kts
04-Dec-19 13:37 33.971845 -118.416310 316 3885ft 126kts
04-Dec-19 13:37 33.994415 -118.442372 322 3867ft 131kts
04-Dec-19 13:38 34.024107 -118.467635 318 3990ft 135kts
04-Dec-19 13:40 34.044980 -118.507664 311 4108ft 123kts
04-Dec-19 13:40 34.063445 -118.534097 314 3962ft 124kts
04-Dec-19 13:41 34.088238 -118.562687 317 3856ft 122kts
04-Dec-19 13:42 34.112087 -118.590195 317 3961ft 114kts
04-Dec-19 13:43 34.139236 -118.603872 359 4205ft 107kts
04-Dec-19 13:44 34.167458 -118.602235 359 4762ft 93kts
04-Dec-19 13:45 34.196329 -118.604582 359 5044ft 123kts
04-Dec-19 13:46 34.232432 -118.609785 359 5049ft 138kts
04-Dec-19 13:47 34.270991 -118.614933 359 5064ft 139kts
04-Dec-19 13:48 34.309405 -118.619905 359 5081ft 139kts
04-Dec-19 13:49 34.348024 -118.624755 359 5094ft 139kts
04-Dec-19 13:50 34.386674 -118.629471 359 5113ft 139kts
04-Dec-19 13:51 34.425391 -118.634102 359 5128ft 139kts
04-Dec-19 13:52 34.460379 -118.628692 72 5115ft 121kts
04-Dec-19 13:53 34.465273 -118.588941 88 5120ft 119kts
04-Dec-19 13:54 34.467901 -118.548918 119 5053ft 120kts
04-Dec-19 13:55 34.441362 -118.527109 148 5105ft 115kts
04-Dec-19 13:56 34.411783 -118.513058 174 5085ft 118kts
04-Dec-19 13:57 34.376050 -118.511881 174 4540ft 132kts
04-Dec-19 13:58 34.339854 -118.502684 153 3713ft 137kts
04-Dec-19 13:59 34.306444 -118.501585 181 2877ft 106kts
04-Dec-19 14:00 34.280062 -118.498389 163 2277ft 91kts
04-Dec-19 14:01 34.256192 -118.494910 169 1895ft 85kts
04-Dec-19 14:02 34.232406 -118.492632 168 1325ft 80kts
04-Dec-19 14:03 34.212445 -118.490624 177 805ft 27kts
04-Dec-19 14:04 34.210104 -118.491269 269 805ft 0kts
04-Dec-19 14:05 34.210104 -118.491274 269 805ft 0kts

Navigation Log

Ident Type
Flight plan parsing failed, navigation log unavailable